Time;durP1;ratioP1;P1;durP2;ratioP2;P2;SDS_P1;SDS_P2;PMS_P1;PMS_P2;Temp;Humidity;BMP_temperature;BMP_pressure;BME280_temperature;BME280_humidity;BME280_pressure;Samples;Min_cycle;Max_cycle;Signal;HPM_P1;HPM_P2
2022/08/31 00:04:52;;;;;;;7.20;3.58;;;;;;;19.56;69.87;100734.88;5057328;28;20028;-72
2022/08/31 00:07:17;;;;;;;9.32;4.20;;;;;;;19.55;69.28;100740.84;5058235;28;20501;-72
2022/08/31 00:09:43;;;;;;;8.30;4.05;;;;;;;19.54;69.50;100733.59;5050298;28;20056;-72
2022/08/31 00:12:08;;;;;;;11.05;4.57;;;;;;;19.49;71.67;100731.81;5055445;28;20025;-72
2022/08/31 00:14:34;;;;;;;7.90;4.38;;;;;;;19.42;71.37;100740.03;5056376;28;20521;-72
2022/08/31 00:16:59;;;;;;;10.98;4.80;;;;;;;19.34;72.43;100735.31;5056888;28;20059;-71
2022/08/31 00:19:25;;;;;;;10.35;5.05;;;;;;;19.30;72.48;100732.34;5023048;28;20033;-72
2022/08/31 00:21:50;;;;;;;8.18;4.07;;;;;;;19.31;72.60;100733.19;5053834;28;20024;-72
2022/08/31 00:24:16;;;;;;;9.93;4.57;;;;;;;19.25;73.76;100732.59;5057181;28;20032;-72
2022/08/31 00:26:41;;;;;;;10.80;4.43;;;;;;;19.23;72.64;100734.94;5053646;28;20029;-72
2022/08/31 00:29:07;;;;;;;8.93;4.43;;;;;;;19.21;72.88;100734.44;5050287;28;20029;-72
2022/08/31 00:31:32;;;;;;;9.05;4.68;;;;;;;19.12;73.89;100733.72;5051499;28;20039;-72
2022/08/31 00:33:58;;;;;;;12.43;5.75;;;;;;;19.05;75.43;100730.63;5058089;28;20028;-72
2022/08/31 00:36:24;;;;;;;13.60;5.90;;;;;;;19.04;76.10;100734.63;5050428;28;20024;-72
2022/08/31 00:38:50;;;;;;;8.60;4.75;;;;;;;19.03;74.91;100733.81;5050885;28;20040;-72
2022/08/31 00:41:18;;;;;;;11.77;5.47;;;;;;;19.01;76.37;100738.94;5029811;28;20028;-72
2022/08/31 00:43:50;;;;;;;9.77;4.78;;;;;;;19.05;75.16;100730.63;5045938;28;20049;-72
2022/08/31 00:46:21;;;;;;;7.90;4.28;;;;;;;19.10;72.91;100744.50;5056436;28;20045;-71
2022/08/31 00:48:55;;;;;;;8.27;4.40;;;;;;;19.08;74.39;100741.19;5056216;28;20083;-72
2022/08/31 00:51:20;;;;;;;12.63;4.82;;;;;;;19.08;73.20;100736.38;5037486;28;20045;-72
2022/08/31 00:53:46;;;;;;;12.07;4.60;;;;;;;19.09;73.36;100742.84;5052043;28;20033;-71
2022/08/31 00:56:12;;;;;;;8.82;4.25;;;;;;;19.14;72.63;100739.84;5036851;28;20532;-72
2022/08/31 00:58:38;;;;;;;10.63;5.18;;;;;;;19.16;71.87;100748.72;5039477;28;20056;-71
2022/08/31 01:01:03;;;;;;;7.72;4.32;;;;;;;19.15;71.68;100736.66;5038308;28;20029;-72
2022/08/31 01:03:29;;;;;;;10.30;4.97;;;;;;;19.13;73.23;100733.34;5016431;28;20478;-72
2022/08/31 01:05:55;;;;;;;8.55;4.57;;;;;;;19.07;74.21;100733.94;5019997;28;20037;-72
2022/08/31 01:08:20;;;;;;;12.95;5.38;;;;;;;19.04;74.99;100734.63;5055567;28;20520;-72
2022/08/31 01:10:45;;;;;;;10.27;4.85;;;;;;;19.01;73.53;100724.06;5052095;28;20033;-72
2022/08/31 01:13:11;;;;;;;8.98;5.07;;;;;;;18.93;76.61;100729.41;5056056;28;20033;-72
2022/08/31 01:15:38;;;;;;;10.20;5.50;;;;;;;18.77;78.81;100731.22;5039012;28;20044;-72
2022/08/31 01:18:04;;;;;;;6.97;4.47;;;;;;;18.80;76.25;100724.88;5047475;28;20033;-72
2022/08/31 01:21:15;;;;;;;12.93;5.88;;;;;;;18.75;77.56;100737.19;5017884;28;20053;-72
2022/08/31 01:23:43;;;;;;;11.73;5.85;;;;;;;18.71;77.37;100735.38;5051139;28;20096;-72
2022/08/31 01:26:11;;;;;;;11.68;5.00;;;;;;;18.73;76.97;100735.84;5038176;28;20091;-71
2022/08/31 01:28:36;;;;;;;9.95;4.97;;;;;;;18.75;75.13;100733.56;5054064;28;20068;-71
2022/08/31 01:31:05;;;;;;;11.57;4.80;;;;;;;18.79;74.51;100734.50;5042214;28;20029;-72
2022/08/31 01:33:32;;;;;;;7.88;4.50;;;;;;;18.78;76.04;100734.84;5055383;28;20028;-72
2022/08/31 01:35:57;;;;;;;9.27;4.95;;;;;;;18.72;77.43;100732.22;5055481;28;20526;-72
2022/08/31 01:38:23;;;;;;;11.07;4.90;;;;;;;18.74;75.17;100731.91;5052798;28;20048;-72
2022/08/31 01:40:54;;;;;;;10.50;5.50;;;;;;;18.63;78.82;100731.47;5048814;28;20438;-72
2022/08/31 01:43:20;;;;;;;11.00;5.45;;;;;;;18.62;77.83;100729.00;5055508;28;20074;-72
2022/08/31 01:45:45;;;;;;;10.30;5.65;;;;;;;18.58;79.41;100728.03;5056505;28;20037;-72
2022/08/31 01:48:11;;;;;;;12.35;5.50;;;;;;;18.59;78.20;100724.06;5056249;28;20032;-72
2022/08/31 01:50:37;;;;;;;10.50;5.20;;;;;;;18.52;78.88;100727.41;5044994;28;20029;-72
2022/08/31 01:53:02;;;;;;;13.73;5.60;;;;;;;18.47;79.64;100725.66;5055373;28;20029;-72
2022/08/31 01:55:28;;;;;;;11.93;6.50;;;;;;;18.45;81.56;100727.97;5056128;28;20079;-72
2022/08/31 01:57:56;;;;;;;10.73;5.57;;;;;;;18.44;79.96;100731.09;5056343;28;20100;-72
2022/08/31 02:00:21;;;;;;;14.07;6.40;;;;;;;18.39;82.33;100726.53;5053815;28;20117;-72
2022/08/31 02:02:47;;;;;;;11.23;5.93;;;;;;;18.29;83.59;100732.53;5055940;28;20481;-72
2022/08/31 02:05:13;;;;;;;11.75;6.35;;;;;;;18.25;83.30;100726.78;5055986;28;20473;-72
2022/08/31 02:07:39;;;;;;;12.80;6.45;;;;;;;18.23;84.39;100722.66;5056088;28;20040;-72
2022/08/31 02:10:05;;;;;;;13.65;6.20;;;;;;;18.24;83.57;100727.94;5052165;28;20504;-72
2022/08/31 02:12:30;;;;;;;13.00;6.35;;;;;;;18.18;84.73;100725.66;5053166;28;20539;-72
2022/08/31 02:14:56;;;;;;;9.85;6.18;;;;;;;18.15;83.76;100727.16;5056008;28;20032;-72
2022/08/31 02:17:21;;;;;;;13.68;6.47;;;;;;;18.07;85.92;100725.25;5047736;28;20104;-72
2022/08/31 02:19:47;;;;;;;12.35;6.60;;;;;;;18.07;85.87;100723.25;5050676;28;20029;-72
2022/08/31 02:22:12;;;;;;;11.60;6.63;;;;;;;18.01;86.45;100726.59;5049939;28;20032;-72
2022/08/31 02:24:38;;;;;;;12.50;6.03;;;;;;;18.04;84.60;100726.75;5054949;28;20037;-72
2022/08/31 02:27:03;;;;;;;12.32;7.35;;;;;;;17.97;87.83;100732.09;5054185;28;20028;-72
2022/08/31 02:29:29;;;;;;;12.93;6.75;;;;;;;17.92;88.17;100718.22;5052358;28;20028;-72
2022/08/31 02:31:55;;;;;;;12.23;6.65;;;;;;;17.92;87.02;100723.84;5054934;28;20079;-71
2022/08/31 02:34:21;;;;;;;11.93;5.60;;;;;;;17.96;86.17;100719.19;5055867;28;20082;-72
2022/08/31 02:36:46;;;;;;;11.55;5.80;;;;;;;17.93;86.13;100719.03;5055664;28;20028;-72
2022/08/31 02:39:12;;;;;;;9.82;6.30;;;;;;;17.89;87.37;100724.53;5055241;28;20037;-72
2022/08/31 02:41:37;;;;;;;8.23;6.35;;;;;;;17.86;87.50;100719.59;5018575;28;20029;-72
2022/08/31 02:44:03;;;;;;;12.38;6.72;;;;;;;17.83;88.46;100721.06;5055487;28;20473;-72
2022/08/31 02:46:29;;;;;;;13.45;6.78;;;;;;;17.82;88.69;100713.78;5055612;28;20025;-72
2022/08/31 02:48:54;;;;;;;15.73;6.68;;;;;;;17.80;88.81;100721.75;5058309;28;20060;-72
2022/08/31 02:51:20;;;;;;;13.77;6.22;;;;;;;17.80;88.07;100715.28;5051314;28;20481;-71
2022/08/31 02:53:45;;;;;;;13.15;6.15;;;;;;;17.80;88.34;100727.38;5047678;28;20037;-72
2022/08/31 02:56:12;;;;;;;12.75;7.07;;;;;;;17.79;89.28;100720.09;5061630;28;20041;-72
2022/08/31 02:58:38;;;;;;;14.32;7.15;;;;;;;17.75;90.88;100730.34;5037520;28;20053;-72
2022/08/31 03:01:04;;;;;;;9.07;6.10;;;;;;;17.73;90.06;100737.44;5045927;28;20068;-72
2022/08/31 03:03:29;;;;;;;13.35;6.70;;;;;;;17.74;90.56;100733.47;5052408;28;20672;-72
2022/08/31 03:05:55;;;;;;;13.23;5.85;;;;;;;17.77;87.82;100732.78;5058057;28;20021;-72
2022/08/31 03:08:20;;;;;;;12.48;5.97;;;;;;;17.76;90.37;100743.22;5056785;28;20037;-72
2022/08/31 03:10:46;;;;;;;15.70;5.85;;;;;;;17.73;89.57;100731.84;5057573;28;20044;-71
2022/08/31 03:13:11;;;;;;;9.07;5.80;;;;;;;17.75;89.27;100735.13;5058257;28;20486;-72
2022/08/31 03:15:37;;;;;;;15.43;5.60;;;;;;;17.74;88.88;100745.53;5059440;28;20037;-72
2022/08/31 03:18:02;;;;;;;9.45;5.57;;;;;;;17.73;89.04;100737.44;5057804;28;20036;-72
2022/08/31 03:20:28;;;;;;;15.02;6.25;;;;;;;17.72;90.02;100742.25;5055865;28;20108;-72
2022/08/31 03:22:53;;;;;;;15.38;6.70;;;;;;;17.72;90.04;100747.03;5059048;28;20037;-71
2022/08/31 03:25:19;;;;;;;12.35;6.00;;;;;;;17.72;90.72;100741.41;5059287;28;20033;-72
2022/08/31 03:27:45;;;;;;;12.75;5.72;;;;;;;17.75;89.22;100746.38;5051639;28;20020;-72
2022/08/31 03:30:14;;;;;;;11.77;5.78;;;;;;;17.72;89.93;100738.59;5035142;28;20029;-72
2022/08/31 03:32:40;;;;;;;15.77;6.57;;;;;;;17.72;89.93;100731.00;5057592;28;20611;-71
2022/08/31 03:35:05;;;;;;;16.92;6.15;;;;;;;17.64;91.44;100741.13;5057856;28;20055;-72
2022/08/31 03:37:31;;;;;;;8.95;5.30;;;;;;;17.63;91.23;100745.09;5040998;28;20033;-72
2022/08/31 03:39:56;;;;;;;10.73;5.90;;;;;;;17.61;91.58;100740.97;5045758;28;20095;-72
2022/08/31 03:42:22;;;;;;;13.85;6.28;;;;;;;17.57;92.27;100735.19;5058905;28;20036;-72
2022/08/31 03:44:48;;;;;;;14.05;6.30;;;;;;;17.57;92.90;100735.19;5057662;28;20037;-72
2022/08/31 03:47:13;;;;;;;14.70;7.40;;;;;;;17.51;94.43;100732.91;5055971;28;20032;-72
2022/08/31 03:49:39;;;;;;;14.95;7.15;;;;;;;17.47;93.82;100729.94;5056531;28;20029;-71
2022/08/31 03:52:05;;;;;;;12.85;5.18;;;;;;;17.53;91.19;100734.22;5050373;28;20033;-72
2022/08/31 03:54:30;;;;;;;13.57;6.78;;;;;;;17.47;94.25;100729.94;5055402;28;20107;-71
2022/08/31 03:56:56;;;;;;;22.95;7.88;;;;;;;17.44;95.40;100736.25;5038234;28;20048;-72
2022/08/31 03:59:21;;;;;;;15.60;7.05;;;;;;;17.43;94.59;100734.56;5054117;28;20040;-71
2022/08/31 04:01:46;;;;;;;12.10;6.90;;;;;;;17.46;94.30;100738.69;5046665;28;20029;-72
2022/08/31 04:04:12;;;;;;;14.88;5.72;;;;;;;17.44;92.27;100739.06;5058168;28;20374;-72
2022/08/31 04:06:41;;;;;;;13.35;6.43;;;;;;;17.45;92.73;100737.06;5058342;28;20120;-72
2022/08/31 04:09:06;;;;;;;12.98;5.85;;;;;;;17.49;92.30;100738.84;5054601;28;20029;-72
2022/08/31 04:11:32;;;;;;;13.65;6.13;;;;;;;17.39;93.54;100734.44;5051810;28;20048;-72
2022/08/31 04:13:57;;;;;;;16.90;6.80;;;;;;;17.40;94.33;100729.63;5058332;28;20083;-72
2022/08/31 04:16:23;;;;;;;12.50;6.65;;;;;;;17.37;95.17;100741.53;5059859;28;20029;-72
2022/08/31 04:18:48;;;;;;;15.52;6.60;;;;;;;17.37;94.87;100738.72;5058705;28;20104;-71
2022/08/31 04:21:19;;;;;;;13.10;6.35;;;;;;;17.33;95.25;100737.75;5046001;28;20032;-72
2022/08/31 04:23:45;;;;;;;14.32;6.43;;;;;;;17.33;95.74;100737.75;5056947;28;20064;-72
2022/08/31 04:26:32;;;;;;;12.80;6.10;;;;;;;17.35;93.77;100727.00;5023472;28;20048;-71
2022/08/31 04:28:58;;;;;;;12.00;6.10;;;;;;;17.29;95.84;100731.16;5048193;28;20120;-72
2022/08/31 04:31:24;;;;;;;10.02;5.57;;;;;;;17.37;93.45;100736.75;5048425;28;20033;-72
2022/08/31 04:33:50;;;;;;;13.73;5.72;;;;;;;17.37;93.56;100742.34;5056725;28;20032;-72
2022/08/31 04:36:20;;;;;;;15.07;6.07;;;;;;;17.36;94.39;100737.09;5057852;28;20025;-72
2022/08/31 04:38:46;;;;;;;13.32;5.63;;;;;;;17.30;95.10;100730.81;5055695;28;20033;-72
2022/08/31 04:41:13;;;;;;;14.77;6.25;;;;;;;17.29;96.09;100731.97;5048757;28;20503;-72
2022/08/31 04:43:39;;;;;;;14.68;6.18;;;;;;;17.33;94.85;100741.38;5053043;28;20057;-72
2022/08/31 04:46:06;;;;;;;16.15;6.40;;;;;;;17.27;96.38;100734.28;5057803;28;20032;-72
2022/08/31 04:48:32;;;;;;;13.27;6.07;;;;;;;17.31;94.92;100738.09;5056095;28;20017;-72
2022/08/31 04:51:05;;;;;;;10.82;5.00;;;;;;;17.33;94.84;100740.56;5039619;28;20048;-72
2022/08/31 04:53:30;;;;;;;12.48;6.07;;;;;;;17.29;96.88;100742.38;5057281;28;20033;-72
2022/08/31 04:55:55;;;;;;;13.60;5.78;;;;;;;17.25;96.29;100741.41;5057469;28;20040;-72
2022/08/31 04:58:22;;;;;;;13.82;5.45;;;;;;;17.22;95.94;100740.09;5056422;28;20080;-72
2022/08/31 05:00:49;;;;;;;15.77;6.00;;;;;;;17.18;97.01;100734.31;5045745;28;20034;-73
2022/08/31 05:03:14;;;;;;;12.30;5.35;;;;;;;17.20;95.63;100739.59;5039415;28;20040;-72
2022/08/31 05:05:40;;;;;;;14.38;5.95;;;;;;;17.16;97.24;100745.06;5039630;28;20037;-72
2022/08/31 05:08:06;;;;;;;14.57;5.38;;;;;;;17.15;96.05;100742.56;5022802;28;20039;-72
2022/08/31 05:10:31;;;;;;;11.32;6.03;;;;;;;17.15;96.27;100734.97;5033711;28;20032;-72
2022/08/31 05:12:57;;;;;;;12.70;5.72;;;;;;;17.17;95.75;100738.28;5023027;28;20032;-73
2022/08/31 05:15:22;;;;;;;10.88;5.80;;;;;;;17.14;96.70;100733.34;5022773;28;20033;-72
2022/08/31 05:17:48;;;;;;;13.65;5.85;;;;;;;17.09;97.10;100735.50;5055341;28;20033;-72
2022/08/31 05:20:13;;;;;;;14.45;6.40;;;;;;;17.12;97.58;100738.44;5032997;28;20033;-72
2022/08/31 05:22:39;;;;;;;12.50;5.70;;;;;;;17.05;97.43;100740.09;5022181;28;20025;-72
2022/08/31 05:25:06;;;;;;;11.48;4.90;;;;;;;17.07;96.16;100741.41;5022576;28;20043;-72
2022/08/31 05:27:33;;;;;;;12.52;5.93;;;;;;;17.08;97.13;100745.06;5028277;28;20034;-72
2022/08/31 05:29:58;;;;;;;16.67;6.82;;;;;;;17.01;98.66;100739.94;5008706;28;20449;-73
2022/08/31 05:32:24;;;;;;;13.10;5.72;;;;;;;16.98;98.98;100743.41;5020115;28;20048;-73
2022/08/31 05:34:50;;;;;;;12.00;5.20;;;;;;;17.00;97.71;100748.72;5022075;28;20025;-72
2022/08/31 05:37:16;;;;;;;15.15;5.93;;;;;;;16.98;98.26;100746.22;5038966;28;20055;-72
2022/08/31 05:39:42;;;;;;;17.60;5.43;;;;;;;17.04;96.42;100756.13;5034904;28;20441;-73
2022/08/31 05:42:07;;;;;;;12.43;5.65;;;;;;;17.01;98.07;100751.16;5002921;28;20029;-73
2022/08/31 05:44:33;;;;;;;10.40;5.82;;;;;;;17.00;98.23;100749.53;5047768;28;20028;-73
2022/08/31 05:47:00;;;;;;;12.75;5.05;;;;;;;17.05;97.18;100749.38;5013212;28;20029;-72
2022/08/31 05:49:25;;;;;;;10.13;5.60;;;;;;;17.04;97.91;100756.13;5029420;28;20026;-73
2022/08/31 05:51:51;;;;;;;13.75;5.22;;;;;;;17.14;96.13;100755.78;5003768;28;20033;-72
2022/08/31 05:54:16;;;;;;;9.65;5.38;;;;;;;17.20;95.53;100762.03;5044785;28;20496;-73
2022/08/31 05:56:42;;;;;;;8.98;4.95;;;;;;;17.27;94.75;100758.72;5030747;28;20041;-73
2022/08/31 05:59:07;;;;;;;8.95;4.20;;;;;;;17.36;93.52;100759.53;5029223;28;20039;-73
2022/08/31 06:01:35;;;;;;;11.57;5.57;;;;;;;17.34;95.77;100759.03;5031176;28;20026;-73
2022/08/31 06:04:01;;;;;;;11.70;5.53;;;;;;;17.38;95.53;100762.81;5029886;28;20021;-74
2022/08/31 06:06:27;;;;;;;12.32;5.40;;;;;;;17.40;96.17;100749.28;5029545;28;20033;-73
2022/08/31 06:08:52;;;;;;;15.48;6.32;;;;;;;17.41;97.40;100742.50;5028078;28;20045;-72
2022/08/31 06:11:19;;;;;;;12.45;5.53;;;;;;;17.44;97.12;100739.06;5018202;28;20084;-73
2022/08/31 06:13:46;;;;;;;17.88;5.55;;;;;;;17.49;97.54;100738.84;5006213;28;20043;-72
2022/08/31 06:16:12;;;;;;;12.68;5.22;;;;;;;17.54;97.42;100740.66;5037971;28;20080;-72
2022/08/31 06:18:39;;;;;;;13.75;5.95;;;;;;;17.61;97.27;100746.59;5054942;28;20248;-72
2022/08/31 06:21:09;;;;;;;16.27;5.18;;;;;;;17.72;95.71;100747.03;5018889;28;20654;-72
2022/08/31 06:23:41;;;;;;;12.25;5.68;;;;;;;17.76;96.49;100739.59;5038337;28;20541;-72
2022/08/31 06:26:11;;;;;;;16.47;5.00;;;;;;;17.85;95.77;100749.63;5038369;28;20072;-72
2022/08/31 06:28:48;;;;;;;13.38;5.28;;;;;;;17.94;95.61;100744.00;5026222;28;20394;-72
2022/08/31 06:31:30;;;;;;;15.27;5.90;;;;;;;17.99;95.58;100740.97;5015183;28;20035;-72
2022/08/31 06:33:56;;;;;;;14.63;5.40;;;;;;;18.03;94.76;100735.53;5023574;28;20029;-72
2022/08/31 06:36:22;;;;;;;13.88;5.45;;;;;;;18.08;94.28;100740.97;5037916;28;20025;-72
2022/08/31 06:38:48;;;;;;;15.20;5.10;;;;;;;18.14;93.99;100750.00;5016078;28;20060;-72
2022/08/31 06:41:22;;;;;;;13.63;5.13;;;;;;;18.21;93.14;100751.09;5029778;28;20032;-72
2022/08/31 06:43:48;;;;;;;9.60;4.47;;;;;;;18.26;93.08;100762.16;5026040;28;20094;-72
2022/08/31 06:46:13;;;;;;;13.73;5.40;;;;;;;18.30;92.88;100762.28;5025431;28;20469;-72
2022/08/31 06:48:39;;;;;;;10.85;5.15;;;;;;;18.31;92.86;100758.34;5038169;28;20116;-73
2022/08/31 06:51:05;;;;;;;13.48;4.80;;;;;;;18.38;92.45;100761.41;5017779;28;20036;-72
2022/08/31 06:53:31;;;;;;;13.38;4.75;;;;;;;18.39;92.20;100763.09;5022376;28;20036;-72
2022/08/31 06:56:11;;;;;;;10.88;5.00;;;;;;;18.45;91.69;100770.16;5033562;28;20065;-73
2022/08/31 06:58:37;;;;;;;14.35;5.15;;;;;;;18.49;91.42;100776.72;5024449;28;20077;-73
2022/08/31 07:01:10;;;;;;;13.88;4.78;;;;;;;18.51;91.72;100771.59;5034575;28;20041;-73
2022/08/31 07:03:37;;;;;;;12.75;4.82;;;;;;;18.54;91.43;100782.16;5058611;28;20395;-73
2022/08/31 07:06:14;;;;;;;12.32;4.35;;;;;;;18.60;90.80;100777.16;5008899;28;20048;-73
2022/08/31 07:08:40;;;;;;;9.48;4.85;;;;;;;18.68;90.77;100773.44;5025875;28;20063;-73
2022/08/31 07:11:13;;;;;;;13.10;5.00;;;;;;;18.73;91.00;100775.25;5052282;28;20037;-73
2022/08/31 07:13:38;;;;;;;11.55;5.07;;;;;;;18.83;90.27;100771.22;5016912;28;20544;-73
2022/08/31 07:16:05;;;;;;;16.75;5.13;;;;;;;18.87;89.74;100764.56;5022024;28;20092;-72
2022/08/31 07:18:31;;;;;;;8.65;4.40;;;;;;;18.96;88.76;100768.13;5019270;28;20025;-72
2022/08/31 07:21:14;;;;;;;11.70;5.00;;;;;;;19.08;88.26;100772.16;5030872;28;20059;-72
2022/08/31 07:23:40;;;;;;;13.32;4.95;;;;;;;19.14;87.60;100773.63;5039130;28;20385;-72
2022/08/31 07:26:31;;;;;;;10.05;4.35;;;;;;;19.26;87.92;100784.91;5018877;28;20032;-72
2022/08/31 07:28:56;;;;;;;11.95;4.78;;;;;;;19.36;87.06;100787.31;5038514;28;20044;-72
2022/08/31 07:31:25;;;;;;;16.65;4.85;;;;;;;19.46;85.50;100780.38;5036822;28;20057;-72
2022/08/31 07:33:52;;;;;;;12.55;4.15;;;;;;;19.55;85.21;100781.09;5041488;28;20675;-72
2022/08/31 07:36:18;;;;;;;14.07;4.38;;;;;;;19.65;84.63;100788.31;5037924;28;20025;-72
2022/08/31 07:44:21;;;;;;;8.52;4.15;;;;;;;19.94;83.36;100795.78;5039794;28;20059;-73
2022/08/31 07:46:47;;;;;;;12.50;4.63;;;;;;;20.07;83.26;100790.97;5040888;28;20033;-73
2022/08/31 07:49:13;;;;;;;13.15;4.20;;;;;;;20.20;82.26;100794.63;5038641;28;20037;-73
2022/08/31 07:51:42;;;;;;;11.57;4.03;;;;;;;20.28;80.93;100782.38;5055015;28;20063;-74
2022/08/31 07:54:08;;;;;;;9.95;4.95;;;;;;;20.37;80.17;100779.47;5041033;28;20028;-72
2022/08/31 07:56:35;;;;;;;10.48;4.30;;;;;;;20.38;80.29;100781.91;5024596;28;20390;-72
2022/08/31 07:59:02;;;;;;;8.63;3.75;;;;;;;20.44;79.67;100779.69;5017657;28;20057;-71
2022/08/31 08:01:30;;;;;;;11.95;4.13;;;;;;;20.49;79.16;100790.72;5002197;28;20038;-72
2022/08/31 08:03:58;;;;;;;12.10;4.03;;;;;;;20.58;79.00;100785.78;5037410;28;20083;-72
2022/08/31 08:06:27;;;;;;;10.43;3.95;;;;;;;20.61;78.88;100789.91;5029292;28;20496;-71
2022/08/31 08:08:53;;;;;;;13.43;3.92;;;;;;;20.60;78.78;100777.81;5044583;28;20021;-72
2022/08/31 08:11:20;;;;;;;11.50;4.07;;;;;;;20.62;78.67;100783.91;5035996;28;20041;-71
2022/08/31 08:13:47;;;;;;;8.90;3.65;;;;;;;20.67;78.08;100788.47;5014753;28;20040;-71
2022/08/31 08:16:12;;;;;;;8.82;3.90;;;;;;;20.69;78.64;100792.59;5036486;28;20022;-72
2022/08/31 08:18:37;;;;;;;10.30;4.18;;;;;;;20.69;77.97;100780.47;5038378;28;20083;-71
2022/08/31 08:21:03;;;;;;;9.98;4.13;;;;;;;20.69;77.70;100786.94;5030321;28;20033;-72
2022/08/31 08:23:29;;;;;;;13.73;4.47;;;;;;;20.73;77.54;100787.91;5033135;28;20424;-72
2022/08/31 08:25:56;;;;;;;9.68;4.57;;;;;;;20.72;77.38;100786.22;5036190;28;20033;-72
2022/08/31 08:28:21;;;;;;;10.73;4.53;;;;;;;20.74;77.64;100800.81;5026316;28;20041;-72
2022/08/31 08:30:49;;;;;;;9.73;4.00;;;;;;;20.82;77.24;100796.22;5031317;28;20040;-72
2022/08/31 08:33:16;;;;;;;17.10;4.70;;;;;;;20.87;77.29;100789.50;5036536;28;20036;-72
2022/08/31 08:35:42;;;;;;;11.68;4.50;;;;;;;20.96;77.32;100790.19;5037995;28;20030;-72
2022/08/31 08:38:08;;;;;;;13.38;3.85;;;;;;;21.07;77.00;100784.84;5037715;28;20524;-72
2022/08/31 08:40:41;;;;;;;13.15;4.38;;;;;;;21.20;75.80;100795.75;5030099;28;20029;-72
2022/08/31 08:43:14;;;;;;;12.98;4.05;;;;;;;21.29;74.99;100794.78;5037786;28;20548;-72
2022/08/31 08:45:39;;;;;;;;;;;;;;;21.31;74.50;100789.56;5037136;28;20033;-72
2022/08/31 08:48:08;;;;;;;12.55;4.45;;;;;;;21.38;74.16;100789.81;5037401;28;20282;-72
2022/08/31 08:50:35;;;;;;;8.98;3.90;;;;;;;21.51;74.09;100782.09;5034401;28;20029;-72
2022/08/31 08:53:04;;;;;;;12.68;3.92;;;;;;;21.60;74.67;100783.56;5013127;28;20026;-72
2022/08/31 08:55:34;;;;;;;13.60;4.95;;;;;;;21.71;73.82;100780.19;5035649;28;20036;-72
2022/08/31 08:57:59;;;;;;;10.00;4.07;;;;;;;21.88;74.95;100785.50;5043737;28;20045;-72
2022/08/31 09:00:27;;;;;;;10.98;4.22;;;;;;;22.03;72.39;100787.50;5052903;28;20036;-72
2022/08/31 09:03:00;;;;;;;7.32;4.05;;;;;;;22.22;71.09;100777.47;5044302;28;20504;-72
2022/08/31 09:05:50;;;;;;;12.18;3.72;;;;;;;22.39;70.00;100784.75;5040343;28;20504;-72
2022/08/31 09:08:27;;;;;;;8.27;4.35;;;;;;;22.62;70.01;100773.56;5046878;28;20021;-72
2022/08/31 09:11:23;;;;;;;10.93;3.92;;;;;;;22.86;69.71;100767.63;5053166;28;20041;-73
2022/08/31 09:14:24;;;;;;;9.95;3.55;;;;;;;23.16;69.00;100764.25;5043065;28;20532;-72
2022/08/31 09:16:56;;;;;;;9.30;3.42;;;;;;;23.39;66.92;100770.78;5047130;28;20037;-72
2022/08/31 09:19:21;;;;;;;9.38;3.50;;;;;;;23.61;66.40;100768.34;5049438;28;20029;-72
2022/08/31 09:21:52;;;;;;;11.00;3.40;;;;;;;23.86;65.53;100761.13;5047295;28;20032;-74
2022/08/31 09:24:19;;;;;;;11.48;3.95;;;;;;;24.02;63.29;100760.19;5057019;28;20117;-76
2022/08/31 09:26:57;;;;;;;9.00;3.58;;;;;;;24.23;62.41;100774.69;4994892;28;20022;-75
2022/08/31 09:29:28;;;;;;;12.35;3.08;;;;;;;24.43;61.79;100768.94;5035556;28;20025;-74
2022/08/31 09:32:05;;;;;;;11.43;3.72;;;;;;;24.61;60.96;100775.72;5054470;28;20028;-73
2022/08/31 09:34:39;;;;;;;11.35;3.42;;;;;;;24.72;59.61;100776.69;5019104;28;20029;-72
2022/08/31 09:37:19;;;;;;;9.05;3.30;;;;;;;24.93;58.95;100763.97;5033136;28;20033;-72
2022/08/31 09:39:46;;;;;;;8.48;3.45;;;;;;;24.98;57.22;100761.63;5051601;28;20490;-72
2022/08/31 09:42:31;;;;;;;11.18;4.03;;;;;;;25.00;57.22;100760.44;5038540;28;20566;-72
2022/08/31 09:45:08;;;;;;;13.43;3.22;;;;;;;25.22;57.03;100750.16;5046259;28;20064;-72
2022/08/31 09:47:47;;;;;;;11.25;3.28;;;;;;;25.29;57.18;100756.72;5039962;28;20564;-72
2022/08/31 09:50:29;;;;;;;9.20;3.67;;;;;;;25.34;55.86;100761.25;5056401;28;20127;-72
2022/08/31 09:56:14;;;;;;;9.32;3.08;;;;;;;25.48;55.25;100758.56;5052645;28;20082;-72
2022/08/31 09:59:01;;;;;;;10.77;3.25;;;;;;;25.68;55.60;100756.31;5049332;28;20406;-72
2022/08/31 10:01:42;;;;;;;8.90;3.15;;;;;;;25.81;56.41;100776.78;5048771;28;20111;-72
2022/08/31 10:04:24;;;;;;;7.40;2.95;;;;;;;25.97;55.36;100770.88;5059161;28;20033;-73
2022/08/31 10:07:12;;;;;;;10.50;3.08;;;;;;;25.99;54.18;100772.13;5054751;28;20063;-72
2022/08/31 10:10:01;;;;;;;7.22;3.00;;;;;;;26.08;53.74;100766.91;5030220;28;20398;-71
2022/08/31 10:12:51;;;;;;;8.77;3.33;;;;;;;26.25;53.35;100770.28;5050097;28;20068;-72
2022/08/31 10:15:38;;;;;;;6.68;2.95;;;;;;;26.45;53.84;100759.44;5032426;28;20029;-72
2022/08/31 10:18:13;;;;;;;13.35;3.25;;;;;;;26.58;53.09;100760.78;5038306;28;20033;-72
2022/08/31 10:20:47;;;;;;;6.03;2.55;;;;;;;26.69;52.73;100757.97;5036395;28;20153;-72
2022/08/31 10:23:33;;;;;;;6.68;3.05;;;;;;;26.73;51.37;100758.81;5049422;28;20060;-71
2022/08/31 10:26:06;;;;;;;6.97;3.38;;;;;;;26.83;50.97;100755.22;5054404;28;20041;-71
2022/08/31 10:28:35;;;;;;;9.05;2.97;;;;;;;26.87;50.88;100758.06;5039000;28;20025;-72
2022/08/31 10:31:22;;;;;;;8.45;3.00;;;;;;;26.88;50.80;100765.41;5053042;28;20094;-72
2022/08/31 10:36:42;;;;;;;7.05;2.80;;;;;;;26.99;49.36;100763.41;5044323;28;20463;-72
2022/08/31 10:39:23;;;;;;;7.57;3.08;;;;;;;26.95;49.14;100746.31;5050310;28;20029;-72
2022/08/31 10:41:49;;;;;;;10.27;2.70;;;;;;;26.91;49.44;100756.88;5041497;28;20422;-72
2022/08/31 10:44:23;;;;;;;9.65;2.92;;;;;;;26.96;49.37;100742.22;5034525;28;20033;-72
2022/08/31 10:46:53;;;;;;;9.23;2.75;;;;;;;26.99;49.65;100748.34;5032106;28;20099;-72
2022/08/31 10:49:20;;;;;;;8.57;3.10;;;;;;;26.96;49.39;100759.31;5032370;28;20104;-72
2022/08/31 10:51:54;;;;;;;6.35;3.00;;;;;;;26.97;49.06;100754.47;5029404;28;20037;-71
2022/08/31 10:54:27;;;;;;;10.32;2.80;;;;;;;26.97;49.94;100748.75;5018694;28;20433;-72
2022/08/31 10:57:14;;;;;;;10.55;2.92;;;;;;;27.03;49.15;100746.34;5052253;28;20056;-72
2022/08/31 10:59:57;;;;;;;9.65;3.17;;;;;;;27.06;49.00;100751.25;5018502;28;20037;-71
2022/08/31 11:02:37;;;;;;;10.20;3.13;;;;;;;27.03;49.15;100747.16;5013247;28;20039;-72
2022/08/31 11:05:34;;;;;;;9.27;3.15;;;;;;;27.03;49.29;100743.50;5049764;28;20044;-72
2022/08/31 11:08:30;;;;;;;7.18;2.90;;;;;;;27.13;49.25;100740.66;5054298;28;20029;-72
2022/08/31 11:10:56;;;;;;;9.32;2.88;;;;;;;27.24;48.79;100740.72;5052672;28;20041;-72
2022/08/31 11:13:46;;;;;;;7.82;2.88;;;;;;;27.43;49.01;100741.59;5018576;28;20032;-72
2022/08/31 11:16:17;;;;;;;8.80;2.90;;;;;;;27.53;48.41;100723.69;5055473;28;20025;-72
2022/08/31 11:19:27;;;;;;;10.00;3.10;;;;;;;27.60;47.88;100718.00;5054220;28;20063;-72
2022/08/31 11:21:57;;;;;;;9.40;2.90;;;;;;;27.66;47.91;100716.34;5040482;28;20077;-72
2022/08/31 11:24:56;;;;;;;10.25;2.85;;;;;;;27.78;46.79;100715.97;5035773;28;20371;-72
2022/08/31 11:27:23;;;;;;;7.43;2.70;;;;;;;27.85;46.51;100716.00;5040908;28;20033;-72
2022/08/31 11:29:57;;;;;;;8.68;2.63;;;;;;;27.94;45.90;100709.06;5001837;28;20047;-72
2022/08/31 11:32:44;;;;;;;8.02;2.60;;;;;;;27.99;45.42;100711.50;5041056;28;20095;-72
2022/08/31 11:35:10;;;;;;;7.00;2.72;;;;;;;28.00;45.89;100711.13;5056211;28;20040;-72
2022/08/31 11:38:03;;;;;;;7.00;2.75;;;;;;;27.93;45.40;100713.16;5024639;28;20496;-72
2022/08/31 11:40:40;;;;;;;8.35;2.60;;;;;;;27.93;45.77;100713.97;5049402;28;20057;-72
2022/08/31 11:43:31;;;;;;;9.55;2.50;;;;;;;27.94;46.22;100714.78;5052628;28;20064;-72
2022/08/31 11:46:00;;;;;;;6.35;2.60;;;;;;;27.95;46.02;100710.72;5057163;28;20029;-72